sensor_id;sensor_type;location;lat;lon;timestamp;P1;P2;P0
70197;PMS5003;57582;-34.876;138.628;2023-03-14T00:02:54;2.17;0.87;0.33
70197;PMS5003;57582;-34.876;138.628;2023-03-14T00:05:53;1.83;1.43;0.40
70197;PMS5003;57582;-34.876;138.628;2023-03-14T00:08:53;1.97;1.97;0.83
70197;PMS5003;57582;-34.876;138.628;2023-03-14T00:11:53;1.77;1.37;0.57
70197;PMS5003;57582;-34.876;138.628;2023-03-14T00:14:54;1.13;1.13;0.00
70197;PMS5003;57582;-34.876;138.628;2023-03-14T00:17:53;0.37;0.37;0.07
70197;PMS5003;57582;-34.876;138.628;2023-03-14T00:20:53;0.00;0.00;0.00
70197;PMS5003;57582;-34.876;138.628;2023-03-14T00:23:53;0.87;0.33;0.00
70197;PMS5003;57582;-34.876;138.628;2023-03-14T00:26:54;0.87;0.57;0.43
70197;PMS5003;57582;-34.876;138.628;2023-03-14T00:29:53;0.23;0.23;0.00
70197;PMS5003;57582;-34.876;138.628;2023-03-14T00:32:53;1.20;0.97;0.13
70197;PMS5003;57582;-34.876;138.628;2023-03-14T00:38:55;0.43;0.43;0.00
70197;PMS5003;57582;-34.876;138.628;2023-03-14T00:41:53;0.00;0.00;0.00
70197;PMS5003;57582;-34.876;138.628;2023-03-14T00:44:53;0.93;0.40;0.00
70197;PMS5003;57582;-34.876;138.628;2023-03-14T00:47:53;0.57;0.57;0.00
70197;PMS5003;57582;-34.876;138.628;2023-03-14T00:50:54;0.27;0.00;0.00
70197;PMS5003;57582;-34.876;138.628;2023-03-14T00:53:53;0.60;0.20;0.00
70197;PMS5003;57582;-34.876;138.628;2023-03-14T00:56:53;0.43;0.43;0.00
70197;PMS5003;57582;-34.876;138.628;2023-03-14T00:59:53;0.07;0.07;0.00
70197;PMS5003;57582;-34.876;138.628;2023-03-14T01:02:54;0.57;0.57;0.53
70197;PMS5003;57582;-34.876;138.628;2023-03-14T01:05:53;0.70;0.70;0.03
70197;PMS5003;57582;-34.876;138.628;2023-03-14T01:08:55;0.20;0.20;0.00
70197;PMS5003;57582;-34.876;138.628;2023-03-14T01:11:53;0.87;0.33;0.00
70197;PMS5003;57582;-34.876;138.628;2023-03-14T01:14:54;0.63;0.63;0.07
70197;PMS5003;57582;-34.876;138.628;2023-03-14T01:17:53;1.77;1.00;0.27
70197;PMS5003;57582;-34.876;138.628;2023-03-14T01:20:53;1.03;0.83;0.17
70197;PMS5003;57582;-34.876;138.628;2023-03-14T01:23:55;1.13;0.80;0.27
70197;PMS5003;57582;-34.876;138.628;2023-03-14T01:26:54;1.90;0.83;0.67
70197;PMS5003;57582;-34.876;138.628;2023-03-14T01:29:53;2.50;1.90;0.70
70197;PMS5003;57582;-34.876;138.628;2023-03-14T01:32:53;0.13;0.07;0.00
70197;PMS5003;57582;-34.876;138.628;2023-03-14T01:35:53;1.50;1.13;0.23
70197;PMS5003;57582;-34.876;138.628;2023-03-14T01:38:54;2.30;1.80;0.33
70197;PMS5003;57582;-34.876;138.628;2023-03-14T01:41:53;1.63;0.87;0.10
70197;PMS5003;57582;-34.876;138.628;2023-03-14T01:44:56;0.67;0.13;0.00
70197;PMS5003;57582;-34.876;138.628;2023-03-14T01:47:53;1.03;0.30;0.00
70197;PMS5003;57582;-34.876;138.628;2023-03-14T01:50:54;0.43;0.20;0.00
70197;PMS5003;57582;-34.876;138.628;2023-03-14T01:53:59;0.00;0.00;0.00
70197;PMS5003;57582;-34.876;138.628;2023-03-14T01:56:59;0.67;0.30;0.00
70197;PMS5003;57582;-34.876;138.628;2023-03-14T01:59:58;0.73;0.73;0.00
70197;PMS5003;57582;-34.876;138.628;2023-03-14T02:03:00;0.07;0.00;0.00
70197;PMS5003;57582;-34.876;138.628;2023-03-14T02:05:56;0.47;0.47;0.00
70197;PMS5003;57582;-34.876;138.628;2023-03-14T02:08:54;0.93;0.23;0.00
70197;PMS5003;57582;-34.876;138.628;2023-03-14T02:11:53;0.60;0.60;0.00
70197;PMS5003;57582;-34.876;138.628;2023-03-14T02:14:54;1.70;1.37;0.03
70197;PMS5003;57582;-34.876;138.628;2023-03-14T02:17:54;2.67;2.67;0.27
70197;PMS5003;57582;-34.876;138.628;2023-03-14T02:30:01;2.60;1.57;0.87
70197;PMS5003;57582;-34.876;138.628;2023-03-14T02:32:59;1.77;1.30;0.20
70197;PMS5003;57582;-34.876;138.628;2023-03-14T02:35:59;1.33;1.17;0.33
70197;PMS5003;57582;-34.876;138.628;2023-03-14T02:39:06;0.37;0.30;0.00
70197;PMS5003;57582;-34.876;138.628;2023-03-14T02:41:53;1.73;0.93;0.03
70197;PMS5003;57582;-34.876;138.628;2023-03-14T02:44:59;0.33;0.33;0.23
70197;PMS5003;57582;-34.876;138.628;2023-03-14T02:47:58;0.60;0.60;0.30
70197;PMS5003;57582;-34.876;138.628;2023-03-14T02:50:56;1.97;0.90;0.43
70197;PMS5003;57582;-34.876;138.628;2023-03-14T02:53:54;2.87;0.50;0.40
70197;PMS5003;57582;-34.876;138.628;2023-03-14T02:56:53;1.97;0.87;0.70
70197;PMS5003;57582;-34.876;138.628;2023-03-14T02:59:53;1.43;1.10;0.37
70197;PMS5003;57582;-34.876;138.628;2023-03-14T03:02:54;2.83;1.40;0.20
70197;PMS5003;57582;-34.876;138.628;2023-03-14T03:05:55;1.20;0.83;0.07
70197;PMS5003;57582;-34.876;138.628;2023-03-14T03:08:53;3.10;2.47;1.40
70197;PMS5003;57582;-34.876;138.628;2023-03-14T03:11:53;1.27;1.13;0.20
70197;PMS5003;57582;-34.876;138.628;2023-03-14T03:14:54;2.70;1.70;0.60
70197;PMS5003;57582;-34.876;138.628;2023-03-14T03:17:54;1.47;1.47;0.70
70197;PMS5003;57582;-34.876;138.628;2023-03-14T03:20:53;0.80;0.80;0.53
70197;PMS5003;57582;-34.876;138.628;2023-03-14T03:23:53;1.63;1.37;0.37
70197;PMS5003;57582;-34.876;138.628;2023-03-14T03:26:54;1.17;0.80;0.20
70197;PMS5003;57582;-34.876;138.628;2023-03-14T03:29:53;2.07;1.17;0.20
70197;PMS5003;57582;-34.876;138.628;2023-03-14T03:32:53;0.40;0.40;0.33
70197;PMS5003;57582;-34.876;138.628;2023-03-14T03:35:53;0.50;0.50;0.03
70197;PMS5003;57582;-34.876;138.628;2023-03-14T03:38:54;0.30;0.23;0.00
70197;PMS5003;57582;-34.876;138.628;2023-03-14T03:41:53;0.03;0.03;0.00
70197;PMS5003;57582;-34.876;138.628;2023-03-14T03:44:54;0.67;0.67;0.10
70197;PMS5003;57582;-34.876;138.628;2023-03-14T03:47:54;1.03;0.23;0.00
70197;PMS5003;57582;-34.876;138.628;2023-03-14T03:50:54;1.37;0.40;0.00
70197;PMS5003;57582;-34.876;138.628;2023-03-14T03:53:53;0.20;0.20;0.20
70197;PMS5003;57582;-34.876;138.628;2023-03-14T03:56:53;0.20;0.20;0.13
70197;PMS5003;57582;-34.876;138.628;2023-03-14T03:59:53;0.50;0.50;0.00
70197;PMS5003;57582;-34.876;138.628;2023-03-14T04:02:54;0.30;0.30;0.00
70197;PMS5003;57582;-34.876;138.628;2023-03-14T04:06:03;0.00;0.00;0.00
70197;PMS5003;57582;-34.876;138.628;2023-03-14T04:08:54;0.30;0.30;0.03
70197;PMS5003;57582;-34.876;138.628;2023-03-14T04:11:53;0.43;0.20;0.17
70197;PMS5003;57582;-34.876;138.628;2023-03-14T04:14:54;0.03;0.03;0.00
70197;PMS5003;57582;-34.876;138.628;2023-03-14T04:17:58;0.23;0.23;0.00
70197;PMS5003;57582;-34.876;138.628;2023-03-14T04:20:55;0.17;0.17;0.00
70197;PMS5003;57582;-34.876;138.628;2023-03-14T04:23:53;0.37;0.00;0.00
70197;PMS5003;57582;-34.876;138.628;2023-03-14T04:26:54;0.13;0.13;0.00
70197;PMS5003;57582;-34.876;138.628;2023-03-14T04:29:53;0.40;0.40;0.00
70197;PMS5003;57582;-34.876;138.628;2023-03-14T04:32:53;0.00;0.00;0.00
70197;PMS5003;57582;-34.876;138.628;2023-03-14T04:35:54;0.03;0.03;0.03
70197;PMS5003;57582;-34.876;138.628;2023-03-14T04:38:55;0.07;0.07;0.00
70197;PMS5003;57582;-34.876;138.628;2023-03-14T04:41:53;0.43;0.43;0.03
70197;PMS5003;57582;-34.876;138.628;2023-03-14T04:44:53;0.40;0.40;0.00
70197;PMS5003;57582;-34.876;138.628;2023-03-14T04:47:53;0.00;0.00;0.00
70197;PMS5003;57582;-34.876;138.628;2023-03-14T04:50:55;0.00;0.00;0.00
70197;PMS5003;57582;-34.876;138.628;2023-03-14T04:53:54;0.00;0.00;0.00
70197;PMS5003;57582;-34.876;138.628;2023-03-14T04:56:53;0.00;0.00;0.00
70197;PMS5003;57582;-34.876;138.628;2023-03-14T04:59:53;0.47;0.47;0.00
70197;PMS5003;57582;-34.876;138.628;2023-03-14T05:02:54;0.00;0.00;0.00
70197;PMS5003;57582;-34.876;138.628;2023-03-14T05:05:53;0.00;0.00;0.00
70197;PMS5003;57582;-34.876;138.628;2023-03-14T05:08:54;0.23;0.23;0.00
70197;PMS5003;57582;-34.876;138.628;2023-03-14T05:11:54;0.00;0.00;0.00
70197;PMS5003;57582;-34.876;138.628;2023-03-14T05:14:54;0.00;0.00;0.00
70197;PMS5003;57582;-34.876;138.628;2023-03-14T05:17:54;0.00;0.00;0.00
70197;PMS5003;57582;-34.876;138.628;2023-03-14T05:20:54;0.97;0.00;0.00
70197;PMS5003;57582;-34.876;138.628;2023-03-14T05:23:54;0.47;0.13;0.00
70197;PMS5003;57582;-34.876;138.628;2023-03-14T05:26:54;1.03;0.07;0.00
70197;PMS5003;57582;-34.876;138.628;2023-03-14T05:29:54;0.33;0.33;0.03
70197;PMS5003;57582;-34.876;138.628;2023-03-14T05:32:54;0.40;0.40;0.00
70197;PMS5003;57582;-34.876;138.628;2023-03-14T05:35:54;0.33;0.33;0.00
70197;PMS5003;57582;-34.876;138.628;2023-03-14T05:38:54;0.93;0.33;0.00
70197;PMS5003;57582;-34.876;138.628;2023-03-14T05:41:54;1.43;0.07;0.03
70197;PMS5003;57582;-34.876;138.628;2023-03-14T05:44:54;0.00;0.00;0.00
70197;PMS5003;57582;-34.876;138.628;2023-03-14T05:47:54;0.00;0.00;0.00
70197;PMS5003;57582;-34.876;138.628;2023-03-14T05:50:55;0.00;0.00;0.00
70197;PMS5003;57582;-34.876;138.628;2023-03-14T05:53:54;0.13;0.13;0.00
70197;PMS5003;57582;-34.876;138.628;2023-03-14T05:56:54;0.00;0.00;0.00
70197;PMS5003;57582;-34.876;138.628;2023-03-14T05:59:54;0.00;0.00;0.00
70197;PMS5003;57582;-34.876;138.628;2023-03-14T06:02:54;0.00;0.00;0.00
70197;PMS5003;57582;-34.876;138.628;2023-03-14T06:05:54;0.40;0.27;0.00
70197;PMS5003;57582;-34.876;138.628;2023-03-14T06:08:54;0.57;0.33;0.33
70197;PMS5003;57582;-34.876;138.628;2023-03-14T06:11:54;0.00;0.00;0.00
70197;PMS5003;57582;-34.876;138.628;2023-03-14T06:14:54;0.37;0.00;0.00
70197;PMS5003;57582;-34.876;138.628;2023-03-14T06:17:55;0.00;0.00;0.00
70197;PMS5003;57582;-34.876;138.628;2023-03-14T06:20:55;0.00;0.00;0.00
70197;PMS5003;57582;-34.876;138.628;2023-03-14T06:23:54;0.03;0.03;0.00
70197;PMS5003;57582;-34.876;138.628;2023-03-14T06:26:55;0.00;0.00;0.00
70197;PMS5003;57582;-34.876;138.628;2023-03-14T06:29:54;0.27;0.00;0.00
70197;PMS5003;57582;-34.876;138.628;2023-03-14T06:32:54;0.00;0.00;0.00
70197;PMS5003;57582;-34.876;138.628;2023-03-14T06:35:54;0.00;0.00;0.00
70197;PMS5003;57582;-34.876;138.628;2023-03-14T06:38:54;0.00;0.00;0.00
70197;PMS5003;57582;-34.876;138.628;2023-03-14T06:41:54;0.13;0.13;0.00
70197;PMS5003;57582;-34.876;138.628;2023-03-14T06:44:54;0.00;0.00;0.00
70197;PMS5003;57582;-34.876;138.628;2023-03-14T06:47:54;0.00;0.00;0.00
70197;PMS5003;57582;-34.876;138.628;2023-03-14T06:50:55;0.00;0.00;0.00
70197;PMS5003;57582;-34.876;138.628;2023-03-14T06:53:54;0.23;0.00;0.00
70197;PMS5003;57582;-34.876;138.628;2023-03-14T06:56:54;0.13;0.13;0.00
70197;PMS5003;57582;-34.876;138.628;2023-03-14T06:59:54;0.43;0.00;0.00
70197;PMS5003;57582;-34.876;138.628;2023-03-14T07:02:54;0.00;0.00;0.00
70197;PMS5003;57582;-34.876;138.628;2023-03-14T07:05:54;0.00;0.00;0.00
70197;PMS5003;57582;-34.876;138.628;2023-03-14T07:08:54;0.20;0.20;0.00
70197;PMS5003;57582;-34.876;138.628;2023-03-14T07:11:54;0.40;0.00;0.00
70197;PMS5003;57582;-34.876;138.628;2023-03-14T07:14:54;0.33;0.00;0.00
70197;PMS5003;57582;-34.876;138.628;2023-03-14T07:17:54;0.00;0.00;0.00
70197;PMS5003;57582;-34.876;138.628;2023-03-14T07:20:54;0.00;0.00;0.00
70197;PMS5003;57582;-34.876;138.628;2023-03-14T07:23:54;0.00;0.00;0.00
70197;PMS5003;57582;-34.876;138.628;2023-03-14T07:26:55;0.00;0.00;0.00
70197;PMS5003;57582;-34.876;138.628;2023-03-14T07:29:54;0.83;0.40;0.00
70197;PMS5003;57582;-34.876;138.628;2023-03-14T07:32:54;0.00;0.00;0.00
70197;PMS5003;57582;-34.876;138.628;2023-03-14T07:35:54;0.23;0.23;0.00
70197;PMS5003;57582;-34.876;138.628;2023-03-14T07:38:55;0.83;0.57;0.00
70197;PMS5003;57582;-34.876;138.628;2023-03-14T07:41:54;0.13;0.13;0.00
70197;PMS5003;57582;-34.876;138.628;2023-03-14T07:44:54;0.33;0.33;0.00
70197;PMS5003;57582;-34.876;138.628;2023-03-14T07:47:54;0.00;0.00;0.00
70197;PMS5003;57582;-34.876;138.628;2023-03-14T07:50:55;0.67;0.67;0.07
70197;PMS5003;57582;-34.876;138.628;2023-03-14T07:53:54;0.00;0.00;0.00
70197;PMS5003;57582;-34.876;138.628;2023-03-14T07:56:54;0.40;0.40;0.00
70197;PMS5003;57582;-34.876;138.628;2023-03-14T07:59:54;0.50;0.50;0.00
70197;PMS5003;57582;-34.876;138.628;2023-03-14T08:02:54;0.37;0.37;0.03
70197;PMS5003;57582;-34.876;138.628;2023-03-14T08:05:54;0.43;0.43;0.00
70197;PMS5003;57582;-34.876;138.628;2023-03-14T08:08:54;0.53;0.20;0.00
70197;PMS5003;57582;-34.876;138.628;2023-03-14T08:11:54;0.63;0.03;0.00
70197;PMS5003;57582;-34.876;138.628;2023-03-14T08:14:54;0.13;0.13;0.00
70197;PMS5003;57582;-34.876;138.628;2023-03-14T08:17:54;0.23;0.00;0.00
70197;PMS5003;57582;-34.876;138.628;2023-03-14T08:20:54;0.60;0.30;0.00
70197;PMS5003;57582;-34.876;138.628;2023-03-14T08:23:54;0.03;0.03;0.00
70197;PMS5003;57582;-34.876;138.628;2023-03-14T08:26:55;1.13;0.53;0.27
70197;PMS5003;57582;-34.876;138.628;2023-03-14T08:29:54;0.23;0.23;0.00
70197;PMS5003;57582;-34.876;138.628;2023-03-14T08:32:55;0.33;0.00;0.00
70197;PMS5003;57582;-34.876;138.628;2023-03-14T08:35:56;0.37;0.00;0.00
70197;PMS5003;57582;-34.876;138.628;2023-03-14T08:38:54;0.33;0.33;0.00
70197;PMS5003;57582;-34.876;138.628;2023-03-14T08:41:54;0.37;0.37;0.07
70197;PMS5003;57582;-34.876;138.628;2023-03-14T08:44:54;0.20;0.20;0.00
70197;PMS5003;57582;-34.876;138.628;2023-03-14T08:47:54;0.33;0.33;0.00
70197;PMS5003;57582;-34.876;138.628;2023-03-14T08:50:56;2.17;1.43;0.53
70197;PMS5003;57582;-34.876;138.628;2023-03-14T08:53:54;0.17;0.00;0.00
70197;PMS5003;57582;-34.876;138.628;2023-03-14T08:56:54;1.17;0.17;0.00
70197;PMS5003;57582;-34.876;138.628;2023-03-14T08:59:55;1.00;1.00;0.00
70197;PMS5003;57582;-34.876;138.628;2023-03-14T09:02:54;0.17;0.17;0.00
70197;PMS5003;57582;-34.876;138.628;2023-03-14T09:05:54;0.50;0.50;0.00
70197;PMS5003;57582;-34.876;138.628;2023-03-14T09:08:54;0.57;0.00;0.00
70197;PMS5003;57582;-34.876;138.628;2023-03-14T09:11:54;0.43;0.23;0.00
70197;PMS5003;57582;-34.876;138.628;2023-03-14T09:14:55;0.17;0.17;0.00
70197;PMS5003;57582;-34.876;138.628;2023-03-14T09:17:54;0.43;0.43;0.00
70197;PMS5003;57582;-34.876;138.628;2023-03-14T09:20:55;1.23;0.40;0.23
70197;PMS5003;57582;-34.876;138.628;2023-03-14T09:23:54;1.10;0.70;0.47
70197;PMS5003;57582;-34.876;138.628;2023-03-14T09:26:55;0.23;0.23;0.00
70197;PMS5003;57582;-34.876;138.628;2023-03-14T09:29:54;1.40;0.93;0.13
70197;PMS5003;57582;-34.876;138.628;2023-03-14T09:32:54;0.83;0.23;0.17
70197;PMS5003;57582;-34.876;138.628;2023-03-14T09:35:58;0.80;0.80;0.37
70197;PMS5003;57582;-34.876;138.628;2023-03-14T09:38:55;1.70;0.50;0.03
70197;PMS5003;57582;-34.876;138.628;2023-03-14T09:41:57;1.10;0.90;0.20
70197;PMS5003;57582;-34.876;138.628;2023-03-14T09:44:56;2.13;0.80;0.50
70197;PMS5003;57582;-34.876;138.628;2023-03-14T09:47:55;1.40;1.07;0.53
70197;PMS5003;57582;-34.876;138.628;2023-03-14T09:50:58;0.97;0.97;0.27
70197;PMS5003;57582;-34.876;138.628;2023-03-14T09:53:55;0.63;0.63;0.00
70197;PMS5003;57582;-34.876;138.628;2023-03-14T09:56:54;0.50;0.50;0.30
70197;PMS5003;57582;-34.876;138.628;2023-03-14T10:00:00;1.70;1.07;0.40
70197;PMS5003;57582;-34.876;138.628;2023-03-14T10:05:55;0.73;0.73;0.37
70197;PMS5003;57582;-34.876;138.628;2023-03-14T10:08:55;1.43;0.83;0.03
70197;PMS5003;57582;-34.876;138.628;2023-03-14T10:11:57;0.63;0.63;0.50
70197;PMS5003;57582;-34.876;138.628;2023-03-14T10:14:55;0.77;0.77;0.57
70197;PMS5003;57582;-34.876;138.628;2023-03-14T10:17:54;0.63;0.63;0.60
70197;PMS5003;57582;-34.876;138.628;2023-03-14T10:21:06;1.30;1.03;0.40
70197;PMS5003;57582;-34.876;138.628;2023-03-14T10:23:54;2.07;1.23;1.23
70197;PMS5003;57582;-34.876;138.628;2023-03-14T10:26:59;1.60;0.80;0.57
70197;PMS5003;57582;-34.876;138.628;2023-03-14T10:29:58;1.53;1.07;0.63
70197;PMS5003;57582;-34.876;138.628;2023-03-14T10:32:54;1.77;1.40;1.00
70197;PMS5003;57582;-34.876;138.628;2023-03-14T10:42:03;1.33;0.80;0.53
70197;PMS5003;57582;-34.876;138.628;2023-03-14T10:44:57;1.57;1.57;0.80
70197;PMS5003;57582;-34.876;138.628;2023-03-14T10:47:54;3.60;1.47;0.87
70197;PMS5003;57582;-34.876;138.628;2023-03-14T10:50:59;2.17;2.17;1.30
70197;PMS5003;57582;-34.876;138.628;2023-03-14T10:53:57;3.07;1.13;0.77
70197;PMS5003;57582;-34.876;138.628;2023-03-14T10:57:04;1.80;1.33;0.97
70197;PMS5003;57582;-34.876;138.628;2023-03-14T10:59:56;2.73;1.80;1.00
70197;PMS5003;57582;-34.876;138.628;2023-03-14T11:03:11;2.07;2.00;1.10
70197;PMS5003;57582;-34.876;138.628;2023-03-14T11:06:03;2.03;1.60;0.97
70197;PMS5003;57582;-34.876;138.628;2023-03-14T11:08:57;1.90;1.90;0.70
70197;PMS5003;57582;-34.876;138.628;2023-03-14T11:11:58;1.57;1.57;0.80
70197;PMS5003;57582;-34.876;138.628;2023-03-14T11:15:02;2.20;1.60;0.93
70197;PMS5003;57582;-34.876;138.628;2023-03-14T11:18:23;2.70;1.80;0.73
70197;PMS5003;57582;-34.876;138.628;2023-03-14T11:20:55;2.13;1.60;0.83
70197;PMS5003;57582;-34.876;138.628;2023-03-14T11:24:08;2.37;1.70;1.40
70197;PMS5003;57582;-34.876;138.628;2023-03-14T11:29:59;2.20;1.87;0.93
70197;PMS5003;57582;-34.876;138.628;2023-03-14T11:36:08;2.63;2.20;0.67
70197;PMS5003;57582;-34.876;138.628;2023-03-14T11:38:58;3.93;3.00;1.17
70197;PMS5003;57582;-34.876;138.628;2023-03-14T11:41:57;2.43;1.90;0.67
70197;PMS5003;57582;-34.876;138.628;2023-03-14T11:44:56;3.20;1.87;1.10
70197;PMS5003;57582;-34.876;138.628;2023-03-14T11:48:11;2.00;2.00;0.93
70197;PMS5003;57582;-34.876;138.628;2023-03-14T11:50:57;1.93;1.87;1.03
70197;PMS5003;57582;-34.876;138.628;2023-03-14T11:56:59;2.77;2.07;1.23
70197;PMS5003;57582;-34.876;138.628;2023-03-14T12:03:14;2.73;2.73;1.97
70197;PMS5003;57582;-34.876;138.628;2023-03-14T12:08:56;2.73;2.33;1.87
70197;PMS5003;57582;-34.876;138.628;2023-03-14T12:11:58;3.40;2.80;1.87
70197;PMS5003;57582;-34.876;138.628;2023-03-14T12:15:00;3.00;2.40;1.30
70197;PMS5003;57582;-34.876;138.628;2023-03-14T12:17:55;3.33;1.27;1.00
70197;PMS5003;57582;-34.876;138.628;2023-03-14T12:20:57;2.47;1.60;0.67
70197;PMS5003;57582;-34.876;138.628;2023-03-14T12:23:57;6.87;2.27;1.67
70197;PMS5003;57582;-34.876;138.628;2023-03-14T12:26:57;2.90;2.20;1.33
70197;PMS5003;57582;-34.876;138.628;2023-03-14T12:29:59;2.57;2.57;1.80
70197;PMS5003;57582;-34.876;138.628;2023-03-14T12:33:20;4.73;3.60;1.03
70197;PMS5003;57582;-34.876;138.628;2023-03-14T12:36:00;2.73;2.43;1.60
70197;PMS5003;57582;-34.876;138.628;2023-03-14T12:39:04;2.57;2.30;1.47
70197;PMS5003;57582;-34.876;138.628;2023-03-14T12:42:03;1.67;1.67;0.93
70197;PMS5003;57582;-34.876;138.628;2023-03-14T12:48:02;3.53;2.83;2.00
70197;PMS5003;57582;-34.876;138.628;2023-03-14T12:51:03;1.63;1.43;0.83
70197;PMS5003;57582;-34.876;138.628;2023-03-14T12:59:58;3.90;2.97;2.07
70197;PMS5003;57582;-34.876;138.628;2023-03-14T13:03:02;4.07;4.07;2.80
70197;PMS5003;57582;-34.876;138.628;2023-03-14T13:05:57;3.53;3.53;2.00
70197;PMS5003;57582;-34.876;138.628;2023-03-14T13:08:54;3.90;2.87;1.37
70197;PMS5003;57582;-34.876;138.628;2023-03-14T13:12:00;3.60;3.27;1.83
70197;PMS5003;57582;-34.876;138.628;2023-03-14T13:14:58;3.37;3.30;2.33
70197;PMS5003;57582;-34.876;138.628;2023-03-14T13:18:01;5.50;4.57;2.50
70197;PMS5003;57582;-34.876;138.628;2023-03-14T13:20:59;2.17;2.00;1.47
70197;PMS5003;57582;-34.876;138.628;2023-03-14T13:24:04;2.57;2.13;1.10
70197;PMS5003;57582;-34.876;138.628;2023-03-14T13:26:56;4.50;2.87;1.60
70197;PMS5003;57582;-34.876;138.628;2023-03-14T13:29:55;3.13;2.77;1.47
70197;PMS5003;57582;-34.876;138.628;2023-03-14T13:32:55;6.17;3.87;2.43
70197;PMS5003;57582;-34.876;138.628;2023-03-14T13:35:56;4.30;2.50;1.83
70197;PMS5003;57582;-34.876;138.628;2023-03-14T13:38:58;3.77;2.70;1.97
70197;PMS5003;57582;-34.876;138.628;2023-03-14T13:41:58;2.50;2.20;1.53
70197;PMS5003;57582;-34.876;138.628;2023-03-14T13:44:56;3.00;2.23;1.67
70197;PMS5003;57582;-34.876;138.628;2023-03-14T13:47:55;7.33;3.50;2.03
70197;PMS5003;57582;-34.876;138.628;2023-03-14T13:51:00;4.13;3.33;2.03
70197;PMS5003;57582;-34.876;138.628;2023-03-14T13:53:55;4.27;3.20;1.63
70197;PMS5003;57582;-34.876;138.628;2023-03-14T13:57:04;5.10;2.83;1.47
70197;PMS5003;57582;-34.876;138.628;2023-03-14T14:00:03;2.53;1.30;1.00
70197;PMS5003;57582;-34.876;138.628;2023-03-14T14:02:57;3.57;2.37;1.07
70197;PMS5003;57582;-34.876;138.628;2023-03-14T14:05:56;2.53;2.00;1.30
70197;PMS5003;57582;-34.876;138.628;2023-03-14T14:08:57;4.13;2.33;1.60
70197;PMS5003;57582;-34.876;138.628;2023-03-14T14:11:58;2.77;1.67;0.87
70197;PMS5003;57582;-34.876;138.628;2023-03-14T14:14:59;3.30;2.37;1.13
70197;PMS5003;57582;-34.876;138.628;2023-03-14T14:17:59;3.93;2.53;1.93
70197;PMS5003;57582;-34.876;138.628;2023-03-14T14:20:55;3.63;2.57;2.00
70197;PMS5003;57582;-34.876;138.628;2023-03-14T14:23:55;4.50;3.20;1.87
70197;PMS5003;57582;-34.876;138.628;2023-03-14T14:27:19;2.03;1.87;1.43
70197;PMS5003;57582;-34.876;138.628;2023-03-14T14:30:02;3.27;1.43;0.50
70197;PMS5003;57582;-34.876;138.628;2023-03-14T14:33:21;2.60;1.80;1.00
70197;PMS5003;57582;-34.876;138.628;2023-03-14T14:35:58;2.13;1.57;0.87
70197;PMS5003;57582;-34.876;138.628;2023-03-14T14:39:00;2.37;2.37;1.47
70197;PMS5003;57582;-34.876;138.628;2023-03-14T14:41:54;2.83;2.17;1.30
70197;PMS5003;57582;-34.876;138.628;2023-03-14T14:44:56;2.50;2.07;1.37
70197;PMS5003;57582;-34.876;138.628;2023-03-14T14:47:58;5.43;2.37;1.00
70197;PMS5003;57582;-34.876;138.628;2023-03-14T14:51:00;2.67;2.03;1.00
70197;PMS5003;57582;-34.876;138.628;2023-03-14T14:54:09;1.97;1.97;0.97
70197;PMS5003;57582;-34.876;138.628;2023-03-14T14:57:01;3.90;2.67;1.03
70197;PMS5003;57582;-34.876;138.628;2023-03-14T15:00:00;1.43;1.43;0.97
70197;PMS5003;57582;-34.876;138.628;2023-03-14T15:02:59;2.93;2.10;1.00
70197;PMS5003;57582;-34.876;138.628;2023-03-14T15:05:55;3.47;1.90;0.97
70197;PMS5003;57582;-34.876;138.628;2023-03-14T15:08:55;2.53;2.17;1.07
70197;PMS5003;57582;-34.876;138.628;2023-03-14T15:11:54;1.97;1.27;0.77
70197;PMS5003;57582;-34.876;138.628;2023-03-14T15:14:55;1.33;0.97;0.37
70197;PMS5003;57582;-34.876;138.628;2023-03-14T15:17:55;1.47;1.47;0.87
70197;PMS5003;57582;-34.876;138.628;2023-03-14T15:20:55;2.17;1.40;0.63
70197;PMS5003;57582;-34.876;138.628;2023-03-14T15:23:55;1.80;1.80;1.30
70197;PMS5003;57582;-34.876;138.628;2023-03-14T15:26:56;2.30;1.33;1.23
70197;PMS5003;57582;-34.876;138.628;2023-03-14T15:29:55;1.30;1.30;0.07
70197;PMS5003;57582;-34.876;138.628;2023-03-14T15:32:55;1.57;1.00;0.70
70197;PMS5003;57582;-34.876;138.628;2023-03-14T15:35:55;2.27;1.23;0.67
70197;PMS5003;57582;-34.876;138.628;2023-03-14T15:38:55;4.30;2.00;1.00
70197;PMS5003;57582;-34.876;138.628;2023-03-14T15:41:55;1.83;1.37;0.87
70197;PMS5003;57582;-34.876;138.628;2023-03-14T15:44:55;0.97;0.97;0.97
70197;PMS5003;57582;-34.876;138.628;2023-03-14T15:47:55;2.53;1.83;1.00
70197;PMS5003;57582;-34.876;138.628;2023-03-14T15:50:56;1.33;1.00;0.70
70197;PMS5003;57582;-34.876;138.628;2023-03-14T15:53:55;3.40;1.40;0.83
70197;PMS5003;57582;-34.876;138.628;2023-03-14T15:56:56;3.47;1.67;0.53
70197;PMS5003;57582;-34.876;138.628;2023-03-14T15:59:55;5.03;4.37;2.40
70197;PMS5003;57582;-34.876;138.628;2023-03-14T16:02:55;7.10;6.47;2.20
70197;PMS5003;57582;-34.876;138.628;2023-03-14T16:05:55;4.83;4.60;2.23
70197;PMS5003;57582;-34.876;138.628;2023-03-14T16:08:55;3.17;3.17;2.17
70197;PMS5003;57582;-34.876;138.628;2023-03-14T16:11:55;3.27;3.27;2.07
70197;PMS5003;57582;-34.876;138.628;2023-03-14T16:14:55;4.90;3.87;2.30
70197;PMS5003;57582;-34.876;138.628;2023-03-14T16:17:55;4.63;4.07;1.73
70197;PMS5003;57582;-34.876;138.628;2023-03-14T16:20:57;3.27;2.60;1.43
70197;PMS5003;57582;-34.876;138.628;2023-03-14T16:23:55;3.20;2.03;0.97
70197;PMS5003;57582;-34.876;138.628;2023-03-14T16:26:55;4.00;3.63;1.90
70197;PMS5003;57582;-34.876;138.628;2023-03-14T16:29:55;4.43;2.97;1.70
70197;PMS5003;57582;-34.876;138.628;2023-03-14T16:32:55;3.53;3.40;1.27
70197;PMS5003;57582;-34.876;138.628;2023-03-14T16:35:57;4.17;3.90;2.37
70197;PMS5003;57582;-34.876;138.628;2023-03-14T16:38:55;4.53;4.30;2.37
70197;PMS5003;57582;-34.876;138.628;2023-03-14T16:41:55;3.67;3.00;1.77
70197;PMS5003;57582;-34.876;138.628;2023-03-14T16:44:55;2.03;1.63;1.07
70197;PMS5003;57582;-34.876;138.628;2023-03-14T16:47:55;2.97;1.77;0.27
70197;PMS5003;57582;-34.876;138.628;2023-03-14T16:50:56;3.47;2.10;1.00
70197;PMS5003;57582;-34.876;138.628;2023-03-14T16:53:55;2.60;1.77;1.20
70197;PMS5003;57582;-34.876;138.628;2023-03-14T16:56:55;2.47;2.23;1.23
70197;PMS5003;57582;-34.876;138.628;2023-03-14T16:59:55;4.17;3.23;1.73
70197;PMS5003;57582;-34.876;138.628;2023-03-14T17:02:55;5.33;4.97;3.23
70197;PMS5003;57582;-34.876;138.628;2023-03-14T17:05:55;5.63;3.70;2.23
70197;PMS5003;57582;-34.876;138.628;2023-03-14T17:08:56;6.53;5.70;2.80
70197;PMS5003;57582;-34.876;138.628;2023-03-14T17:11:55;6.53;6.10;2.67
70197;PMS5003;57582;-34.876;138.628;2023-03-14T17:14:55;5.20;5.20;3.13
70197;PMS5003;57582;-34.876;138.628;2023-03-14T17:17:55;7.27;6.07;3.00
70197;PMS5003;57582;-34.876;138.628;2023-03-14T17:20:55;7.30;5.63;3.10
70197;PMS5003;57582;-34.876;138.628;2023-03-14T17:23:55;8.30;6.33;4.20
70197;PMS5003;57582;-34.876;138.628;2023-03-14T17:26:55;10.40;7.23;3.87
70197;PMS5003;57582;-34.876;138.628;2023-03-14T17:29:55;7.37;5.70;3.83
70197;PMS5003;57582;-34.876;138.628;2023-03-14T17:32:55;5.93;4.20;1.37
70197;PMS5003;57582;-34.876;138.628;2023-03-14T17:35:55;5.30;3.53;2.00